Terminal Aerodrome Forecast
Issued by NWS

Home | Current Version | Previous Version | Graphics & Text | Print | Product List | Glossary On
Versions: 1 2 3 4 5 6 7 8 9 10 11 12 13 14 15 16 17 18 19 20 21
442
FTUS43 KABR 251720
TAFMBG
TAF
KMBG 251720Z 2518/2618 VRB06KT P6SM SCT090 BKN120
     FM252000 32009KT P6SM VCTS SCT070 BKN100CB OVC150
     FM252300 01010KT P6SM FEW200
     FM260200 06007KT P6SM SKC=

USA.gov is the U.S. government's official web portal to all federal, state and local government web resources and services.